createdAt,value
2022-10-05T00:00:07.728Z,19
2022-10-05T00:01:07.728Z,18
2022-10-05T00:02:07.728Z,16
2022-10-05T00:03:07.729Z,18
2022-10-05T00:04:07.729Z,15
2022-10-05T00:05:07.729Z,16
2022-10-05T00:06:07.729Z,16
2022-10-05T00:07:07.730Z,18
2022-10-05T00:08:07.730Z,18
2022-10-05T00:09:07.702Z,15
2022-10-05T00:10:07.702Z,16
2022-10-05T00:11:07.702Z,15
2022-10-05T00:12:07.703Z,15
2022-10-05T00:13:07.703Z,10
2022-10-05T00:14:07.703Z,9
2022-10-05T00:15:07.732Z,9
2022-10-05T00:16:07.732Z,9
2022-10-05T00:17:07.732Z,9
2022-10-05T00:18:07.732Z,12
2022-10-05T00:19:07.732Z,9
2022-10-05T00:20:07.733Z,10
2022-10-05T00:21:07.733Z,9
2022-10-05T00:22:07.733Z,9
2022-10-05T00:23:07.733Z,11
2022-10-05T00:24:07.743Z,10
2022-10-05T00:25:07.706Z,10
2022-10-05T00:26:07.706Z,10
2022-10-05T00:27:07.706Z,13
2022-10-05T00:28:07.706Z,11
2022-10-05T00:29:07.707Z,11
2022-10-05T00:30:07.735Z,14
2022-10-05T00:31:07.735Z,13
2022-10-05T00:32:07.735Z,12
2022-10-05T00:33:07.736Z,15
2022-10-05T00:34:07.736Z,11
2022-10-05T00:35:07.736Z,11
2022-10-05T00:36:07.736Z,11
2022-10-05T00:37:07.737Z,14
2022-10-05T00:38:07.737Z,14
2022-10-05T00:39:07.754Z,15
2022-10-05T00:40:07.709Z,14
2022-10-05T00:41:07.709Z,14
2022-10-05T00:42:07.737Z,15
2022-10-05T00:43:07.710Z,13
2022-10-05T00:44:07.710Z,14
2022-10-05T00:45:07.750Z,13
2022-10-05T00:46:07.738Z,15
2022-10-05T00:47:07.739Z,17
2022-10-05T00:48:07.755Z,16
2022-10-05T00:49:07.739Z,17
2022-10-05T00:50:07.739Z,15
2022-10-05T00:51:07.740Z,15
2022-10-05T00:52:07.740Z,15
2022-10-05T00:53:07.740Z,15
2022-10-05T00:54:07.740Z,14
2022-10-05T00:55:07.712Z,16
2022-10-05T00:56:07.713Z,16
2022-10-05T00:57:07.713Z,16
2022-10-05T00:58:07.713Z,17
2022-10-05T00:59:07.713Z,15
2022-10-05T01:00:07.713Z,18
2022-10-05T01:01:07.742Z,15
2022-10-05T01:02:07.742Z,16
2022-10-05T01:03:07.743Z,15
2022-10-05T01:04:07.743Z,14
2022-10-05T01:05:07.743Z,16
2022-10-05T01:06:07.743Z,13
2022-10-05T01:07:07.743Z,13
2022-10-05T01:08:07.743Z,13
2022-10-05T01:09:07.744Z,9
2022-10-05T01:10:07.716Z,10
2022-10-05T01:11:07.716Z,10
2022-10-05T01:12:07.716Z,13
2022-10-05T01:13:07.716Z,13
2022-10-05T01:14:07.717Z,15
2022-10-05T01:15:07.717Z,14
2022-10-05T01:16:07.745Z,16
2022-10-05T01:17:07.745Z,14
2022-10-05T01:18:07.745Z,14
2022-10-05T01:19:07.746Z,15
2022-10-05T01:20:07.746Z,17
2022-10-05T01:21:07.746Z,18
2022-10-05T01:22:07.746Z,16
2022-10-05T01:23:07.747Z,14
2022-10-05T01:24:07.747Z,15
2022-10-05T01:25:07.719Z,15
2022-10-05T01:26:07.719Z,14
2022-10-05T01:27:07.720Z,15
2022-10-05T01:28:07.720Z,14
2022-10-05T01:29:07.720Z,14
2022-10-05T01:30:07.720Z,16
2022-10-05T01:31:07.748Z,15
2022-10-05T01:32:07.748Z,14
2022-10-05T01:33:07.749Z,14
2022-10-05T01:34:07.749Z,12
2022-10-05T01:35:07.749Z,14
2022-10-05T01:36:07.750Z,13
2022-10-05T01:37:07.750Z,15
2022-10-05T01:38:07.750Z,18
2022-10-05T01:39:07.750Z,17
2022-10-05T01:40:07.722Z,16
2022-10-05T01:41:07.722Z,17
2022-10-05T01:42:07.723Z,16
2022-10-05T01:43:07.723Z,16
2022-10-05T01:44:07.723Z,14
2022-10-05T01:45:07.723Z,16
2022-10-05T01:46:07.752Z,14
2022-10-05T01:47:07.752Z,14
2022-10-05T01:48:07.752Z,13
2022-10-05T01:49:07.752Z,14
2022-10-05T01:50:07.753Z,12
2022-10-05T01:51:07.753Z,14
2022-10-05T01:52:07.753Z,13
2022-10-05T01:53:07.753Z,15
2022-10-05T01:54:07.753Z,14
2022-10-05T01:55:07.763Z,13
2022-10-05T01:56:07.726Z,9
2022-10-05T01:57:07.726Z,10
2022-10-05T01:58:07.726Z,10
2022-10-05T01:59:07.726Z,8
2022-10-05T02:00:07.726Z,11
2022-10-05T02:01:07.755Z,9
2022-10-05T02:02:07.755Z,15
2022-10-05T02:03:07.755Z,14
2022-10-05T02:04:07.764Z,13
2022-10-05T02:05:07.756Z,16
2022-10-05T02:06:07.756Z,13
2022-10-05T02:07:07.756Z,13
2022-10-05T02:08:07.756Z,12
2022-10-05T02:09:07.757Z,14
2022-10-05T02:10:07.757Z,14
2022-10-05T02:11:07.729Z,14
2022-10-05T02:12:07.729Z,13
2022-10-05T02:13:07.729Z,16
2022-10-05T02:14:07.729Z,14
2022-10-05T02:15:07.730Z,14
2022-10-05T02:16:07.730Z,14
2022-10-05T02:17:07.758Z,15
2022-10-05T02:18:07.758Z,14
2022-10-05T02:19:07.759Z,14
2022-10-05T02:20:07.759Z,13
2022-10-05T02:21:07.759Z,13
2022-10-05T02:22:07.759Z,13
2022-10-05T02:23:07.759Z,13
2022-10-05T02:24:07.760Z,12
2022-10-05T02:25:07.760Z,15
2022-10-05T02:26:07.732Z,14
2022-10-05T02:27:07.732Z,14
2022-10-05T02:28:07.732Z,14
2022-10-05T02:29:07.733Z,13
2022-10-05T02:30:07.733Z,18
2022-10-05T02:31:07.733Z,16
2022-10-05T02:32:07.761Z,16
2022-10-05T02:33:07.762Z,16
2022-10-05T02:34:07.762Z,15
2022-10-05T02:35:07.762Z,15
2022-10-05T02:36:07.762Z,17
2022-10-05T02:37:07.762Z,17
2022-10-05T02:38:07.763Z,16
2022-10-05T02:39:07.763Z,16
2022-10-05T02:40:07.763Z,15
2022-10-05T02:41:07.735Z,15
2022-10-05T02:42:07.735Z,16
2022-10-05T02:43:07.735Z,15
2022-10-05T02:44:07.736Z,13
2022-10-05T02:45:07.736Z,13
2022-10-05T02:46:07.736Z,12
2022-10-05T02:47:07.764Z,9
2022-10-05T02:48:07.765Z,12
2022-10-05T02:49:07.765Z,12
2022-10-05T02:50:07.765Z,12
2022-10-05T02:51:07.765Z,13
2022-10-05T02:52:07.765Z,15
2022-10-05T02:53:07.766Z,12
2022-10-05T02:54:07.766Z,12
2022-10-05T02:55:07.766Z,15
2022-10-05T02:56:07.791Z,14
2022-10-05T02:57:07.738Z,14
2022-10-05T02:58:07.738Z,13
2022-10-05T02:59:07.739Z,16
2022-10-05T03:00:07.739Z,12
2022-10-05T03:01:07.739Z,10
2022-10-05T03:02:07.767Z,9
2022-10-05T03:03:07.767Z,11
2022-10-05T03:04:07.768Z,9
2022-10-05T03:05:07.776Z,6
2022-10-05T03:06:07.768Z,7
2022-10-05T03:07:07.768Z,7
2022-10-05T03:08:07.769Z,5
2022-10-05T03:09:07.769Z,6
2022-10-05T03:10:07.769Z,7
2022-10-05T03:11:07.786Z,6
2022-10-05T03:12:07.741Z,3
2022-10-05T03:13:07.741Z,3
2022-10-05T03:14:07.769Z,4
2022-10-05T03:15:07.742Z,6
2022-10-05T03:16:07.742Z,6
2022-10-05T03:17:07.780Z,7
2022-10-05T03:18:07.771Z,6
2022-10-05T03:19:07.771Z,8
2022-10-05T03:20:07.787Z,7
2022-10-05T03:21:07.771Z,7
2022-10-05T03:22:07.771Z,6
2022-10-05T03:23:07.771Z,9
2022-10-05T03:24:07.772Z,7
2022-10-05T03:25:07.772Z,9
2022-10-05T03:26:07.772Z,8
2022-10-05T03:27:07.744Z,9
2022-10-05T03:28:07.744Z,10
2022-10-05T03:29:07.745Z,11
2022-10-05T03:30:07.745Z,11
2022-10-05T03:31:07.745Z,8
2022-10-05T03:32:07.745Z,11
2022-10-05T03:33:07.774Z,11
2022-10-05T03:34:07.774Z,8
2022-10-05T03:35:07.838Z,11
2022-10-05T03:36:07.774Z,12
2022-10-05T03:37:07.774Z,10
2022-10-05T03:38:07.775Z,9
2022-10-05T03:39:07.775Z,11
2022-10-05T03:40:07.775Z,10
2022-10-05T03:41:07.775Z,10
2022-10-05T03:42:07.747Z,10
2022-10-05T03:43:07.747Z,12
2022-10-05T03:44:07.748Z,12
2022-10-05T03:45:07.748Z,14
2022-10-05T03:46:07.748Z,15
2022-10-05T03:47:07.748Z,17
2022-10-05T03:48:07.776Z,18
2022-10-05T03:49:07.776Z,15
2022-10-05T03:50:07.777Z,15
2022-10-05T03:51:07.777Z,14
2022-10-05T03:52:07.777Z,15
2022-10-05T03:53:07.777Z,15
2022-10-05T03:54:07.778Z,12
2022-10-05T03:55:07.778Z,14
2022-10-05T03:56:07.778Z,15
2022-10-05T03:57:07.750Z,18
2022-10-05T03:58:07.750Z,12
2022-10-05T03:59:07.750Z,12
2022-10-05T04:00:07.751Z,14
2022-10-05T04:01:07.751Z,13
2022-10-05T04:02:07.751Z,10
2022-10-05T04:03:07.779Z,13
2022-10-05T04:04:07.779Z,12
2022-10-05T04:05:07.780Z,13
2022-10-05T04:06:07.780Z,10
2022-10-05T04:07:07.780Z,13
2022-10-05T04:08:07.780Z,11
2022-10-05T04:09:07.780Z,14
2022-10-05T04:10:07.781Z,13
2022-10-05T04:11:07.781Z,12
2022-10-05T04:12:07.846Z,13
2022-10-05T04:13:07.753Z,17
2022-10-05T04:14:07.753Z,14
2022-10-05T04:15:07.781Z,16
2022-10-05T04:16:07.754Z,13
2022-10-05T04:17:07.754Z,16
2022-10-05T04:18:07.793Z,13
2022-10-05T04:19:07.782Z,13
2022-10-05T04:20:07.783Z,14
2022-10-05T04:21:07.799Z,11
2022-10-05T04:22:07.783Z,16
2022-10-05T04:23:07.783Z,15
2022-10-05T04:24:07.783Z,17
2022-10-05T04:25:07.783Z,17
2022-10-05T04:26:07.784Z,15
2022-10-05T04:27:07.784Z,14
2022-10-05T04:28:07.756Z,15
2022-10-05T04:29:07.756Z,14
2022-10-05T04:30:07.756Z,14
2022-10-05T04:31:07.756Z,10
2022-10-05T04:32:07.757Z,15
2022-10-05T04:33:07.785Z,16
2022-10-05T04:34:07.785Z,16
2022-10-05T04:35:07.785Z,13
2022-10-05T04:36:07.850Z,12
2022-10-05T04:37:07.786Z,16
2022-10-05T04:38:07.786Z,18
2022-10-05T04:39:07.786Z,15
2022-10-05T04:40:07.786Z,21
2022-10-05T04:41:07.786Z,18
2022-10-05T04:42:07.787Z,17
2022-10-05T04:43:07.759Z,20
2022-10-05T04:44:07.759Z,18
2022-10-05T04:45:07.759Z,15
2022-10-05T04:46:07.759Z,15
2022-10-05T04:47:07.760Z,17
2022-10-05T04:48:07.760Z,20
2022-10-05T04:49:07.788Z,24
2022-10-05T04:50:07.788Z,28
2022-10-05T04:51:07.788Z,14
2022-10-05T04:52:07.788Z,16
2022-10-05T04:53:07.789Z,15
2022-10-05T04:54:07.789Z,13
2022-10-05T04:55:07.789Z,15
2022-10-05T04:56:07.789Z,14
2022-10-05T04:57:07.790Z,13
2022-10-05T04:58:07.762Z,14
2022-10-05T04:59:07.762Z,18
2022-10-05T05:00:07.762Z,17
2022-10-05T05:01:07.762Z,21
2022-10-05T05:02:07.762Z,25
2022-10-05T05:03:07.763Z,28
2022-10-05T05:04:07.791Z,26
2022-10-05T05:05:07.791Z,21
2022-10-05T05:06:07.791Z,29
2022-10-05T05:07:07.791Z,26
2022-10-05T05:08:07.791Z,23
2022-10-05T05:09:07.792Z,30
2022-10-05T05:10:07.792Z,29
2022-10-05T05:11:07.792Z,26
2022-10-05T05:12:07.792Z,24
2022-10-05T05:13:07.857Z,31
2022-10-05T05:14:07.765Z,23
2022-10-05T05:15:07.765Z,27
2022-10-05T05:16:07.793Z,26
2022-10-05T05:17:07.765Z,27
2022-10-05T05:18:07.765Z,25
2022-10-05T05:19:07.806Z,26
2022-10-05T05:20:07.794Z,23
2022-10-05T05:21:07.794Z,19
2022-10-05T05:22:07.810Z,23
2022-10-05T05:23:07.794Z,25
2022-10-05T05:24:07.794Z,21
2022-10-05T05:25:07.795Z,19
2022-10-05T05:26:07.795Z,19
2022-10-05T05:27:07.795Z,18
2022-10-05T05:28:07.795Z,18
2022-10-05T05:29:07.767Z,18
2022-10-05T05:30:07.768Z,20
2022-10-05T05:31:07.768Z,17
2022-10-05T05:32:07.768Z,15
2022-10-05T05:33:09.602Z,16
2022-10-05T05:34:07.797Z,18
2022-10-05T05:35:07.797Z,24
2022-10-05T05:36:07.797Z,27
2022-10-05T05:37:07.797Z,21
2022-10-05T05:38:07.797Z,21
2022-10-05T05:39:07.797Z,28
2022-10-05T05:40:07.815Z,29
2022-10-05T05:41:07.798Z,30
2022-10-05T05:42:07.798Z,21
2022-10-05T05:43:07.807Z,26
2022-10-05T05:44:07.770Z,25
2022-10-05T05:45:07.770Z,34
2022-10-05T05:46:07.771Z,27
2022-10-05T05:47:07.771Z,28
2022-10-05T05:48:07.771Z,26
2022-10-05T05:49:07.799Z,27
2022-10-05T05:50:07.800Z,24
2022-10-05T05:51:07.800Z,29
2022-10-05T05:52:07.808Z,20
2022-10-05T05:53:07.800Z,27
2022-10-05T05:54:07.800Z,22
2022-10-05T05:55:07.801Z,27
2022-10-05T05:56:07.801Z,24
2022-10-05T05:57:07.801Z,25
2022-10-05T05:58:07.801Z,28
2022-10-05T05:59:07.773Z,28
2022-10-05T06:00:07.773Z,21
2022-10-05T06:01:07.773Z,24
2022-10-05T06:02:07.774Z,24
2022-10-05T06:03:07.774Z,30
2022-10-05T06:04:07.774Z,27
2022-10-05T06:05:07.802Z,28
2022-10-05T06:06:07.803Z,22
2022-10-05T06:07:07.803Z,29
2022-10-05T06:08:07.803Z,26
2022-10-05T06:09:07.803Z,24
2022-10-05T06:10:07.803Z,24
2022-10-05T06:11:07.804Z,27
2022-10-05T06:12:07.804Z,27
2022-10-05T06:13:07.804Z,27
2022-10-05T06:14:07.776Z,26
2022-10-05T06:15:07.776Z,25
2022-10-05T06:16:07.776Z,27
2022-10-05T06:17:07.776Z,26
2022-10-05T06:18:07.777Z,27
2022-10-05T06:19:07.777Z,23
2022-10-05T06:20:07.805Z,26
2022-10-05T06:21:07.805Z,24
2022-10-05T06:22:07.805Z,23
2022-10-05T06:23:07.806Z,32
2022-10-05T06:24:07.806Z,32
2022-10-05T06:25:07.806Z,35
2022-10-05T06:26:07.806Z,26
2022-10-05T06:27:07.807Z,29
2022-10-05T06:28:07.807Z,25
2022-10-05T06:29:07.779Z,30
2022-10-05T06:30:07.779Z,38
2022-10-05T06:31:07.779Z,39
2022-10-05T06:32:07.779Z,34
2022-10-05T06:33:15.634Z,36
2022-10-05T06:34:07.780Z,35
2022-10-05T06:35:07.808Z,41
2022-10-05T06:36:07.808Z,32
2022-10-05T06:37:07.809Z,30
2022-10-05T06:38:07.809Z,32
2022-10-05T06:39:07.809Z,31
2022-10-05T06:40:07.809Z,34
2022-10-05T06:41:07.809Z,41
2022-10-05T06:42:07.810Z,33
2022-10-05T06:43:07.810Z,30
2022-10-05T06:44:07.782Z,31
2022-10-05T06:45:07.782Z,34
2022-10-05T06:46:07.782Z,37
2022-10-05T06:47:07.782Z,32
2022-10-05T06:48:07.783Z,38
2022-10-05T06:49:07.783Z,29
2022-10-05T06:50:07.811Z,26
2022-10-05T06:51:07.811Z,49
2022-10-05T06:52:07.812Z,51
2022-10-05T06:53:07.812Z,42
2022-10-05T06:54:07.812Z,33
2022-10-05T06:55:07.812Z,33
2022-10-05T06:56:07.812Z,19
2022-10-05T06:57:07.813Z,26
2022-10-05T06:58:07.813Z,27
2022-10-05T06:59:07.785Z,31
2022-10-05T07:00:07.785Z,32
2022-10-05T07:01:07.785Z,28
2022-10-05T07:02:07.786Z,25
2022-10-05T07:03:07.786Z,23
2022-10-05T07:04:07.786Z,31
2022-10-05T07:05:07.814Z,26
2022-10-05T07:06:07.815Z,34
2022-10-05T07:07:07.815Z,31
2022-10-05T07:08:07.815Z,30
2022-10-05T07:09:07.816Z,34
2022-10-05T07:10:07.816Z,33
2022-10-05T07:11:07.825Z,34
2022-10-05T07:12:07.816Z,39
2022-10-05T07:13:07.817Z,42
2022-10-05T07:14:07.817Z,38
2022-10-05T07:15:07.789Z,45
2022-10-05T07:16:07.790Z,27
2022-10-05T07:17:07.790Z,28
2022-10-05T07:18:07.790Z,30
2022-10-05T07:19:07.791Z,31
2022-10-05T07:20:07.791Z,32
2022-10-05T07:21:07.819Z,34
2022-10-05T07:22:07.820Z,31
2022-10-05T07:23:07.820Z,32
2022-10-05T07:24:07.821Z,30
2022-10-05T07:25:07.821Z,31
2022-10-05T07:26:07.821Z,36
2022-10-05T07:27:07.822Z,26
2022-10-05T07:28:07.822Z,28
2022-10-05T07:29:07.822Z,24
2022-10-05T07:30:07.795Z,27
2022-10-05T07:31:07.795Z,27
2022-10-05T07:32:07.796Z,31
2022-10-05T07:33:13.377Z,34
2022-10-05T07:34:07.796Z,30
2022-10-05T07:35:07.799Z,34
2022-10-05T07:36:07.825Z,35
2022-10-05T07:37:07.826Z,33
2022-10-05T07:38:07.834Z,34
2022-10-05T07:39:07.827Z,39
2022-10-05T07:40:07.827Z,40
2022-10-05T07:41:07.827Z,36
2022-10-05T07:42:07.828Z,36
2022-10-05T07:43:07.828Z,36
2022-10-05T07:44:07.829Z,30
2022-10-05T07:45:07.801Z,42
2022-10-05T07:46:07.802Z,40
2022-10-05T07:47:07.802Z,35
2022-10-05T07:48:07.803Z,41
2022-10-05T07:49:07.803Z,40
2022-10-05T07:50:07.803Z,40
2022-10-05T07:51:07.832Z,42
2022-10-05T07:52:07.832Z,43
2022-10-05T07:53:07.833Z,37
2022-10-05T07:54:07.833Z,43
2022-10-05T07:55:07.834Z,45
2022-10-05T07:56:07.834Z,47
2022-10-05T07:57:07.835Z,44
2022-10-05T07:58:07.835Z,47
2022-10-05T07:59:07.836Z,41
2022-10-05T08:00:07.808Z,42
2022-10-05T08:01:07.809Z,37
2022-10-05T08:02:07.809Z,43
2022-10-05T08:03:07.810Z,43
2022-10-05T08:04:07.810Z,38
2022-10-05T08:05:07.811Z,35
2022-10-05T08:06:07.839Z,36
2022-10-05T08:07:07.840Z,36
2022-10-05T08:08:07.840Z,34
2022-10-05T08:09:07.841Z,42
2022-10-05T08:10:07.842Z,36
2022-10-05T08:11:07.842Z,35
2022-10-05T08:12:07.842Z,38
2022-10-05T08:13:07.843Z,38
2022-10-05T08:14:07.844Z,38
2022-10-05T08:15:07.869Z,37
2022-10-05T08:16:07.816Z,45
2022-10-05T08:17:07.817Z,45
2022-10-05T08:18:07.817Z,41
2022-10-05T08:19:07.818Z,52
2022-10-05T08:20:07.818Z,42
2022-10-05T08:21:07.847Z,44
2022-10-05T08:22:07.848Z,39
2022-10-05T08:23:07.848Z,36
2022-10-05T08:24:07.857Z,35
2022-10-05T08:25:07.849Z,45
2022-10-05T08:26:07.850Z,41
2022-10-05T08:27:07.850Z,40
2022-10-05T08:28:07.851Z,37
2022-10-05T08:29:07.851Z,38
2022-10-05T08:30:07.852Z,50
2022-10-05T08:31:07.824Z,42
2022-10-05T08:32:07.825Z,46
2022-10-05T08:33:07.825Z,43
2022-10-05T08:34:07.826Z,38
2022-10-05T08:35:07.826Z,38
2022-10-05T08:36:07.827Z,47
2022-10-05T08:37:07.855Z,45
2022-10-05T08:38:07.856Z,37
2022-10-05T08:39:07.856Z,54
2022-10-05T08:40:07.857Z,50
2022-10-05T08:41:07.857Z,40
2022-10-05T08:42:07.858Z,40
2022-10-05T08:43:07.859Z,47
2022-10-05T08:44:07.859Z,45
2022-10-05T08:45:07.869Z,42
2022-10-05T08:47:07.833Z,49
2022-10-05T08:48:07.833Z,60
2022-10-05T08:49:07.834Z,45
2022-10-05T08:50:07.834Z,41
2022-10-05T08:51:07.863Z,34
2022-10-05T08:52:07.863Z,36
2022-10-05T08:53:07.864Z,44
2022-10-05T08:54:07.865Z,50
2022-10-05T08:55:07.865Z,34
2022-10-05T08:56:07.866Z,41
2022-10-05T08:57:07.866Z,35
2022-10-05T08:58:07.867Z,48
2022-10-05T08:59:07.867Z,46
2022-10-05T09:00:07.840Z,46
2022-10-05T09:01:07.840Z,44
2022-10-05T09:02:07.841Z,50
2022-10-05T09:03:07.842Z,45
2022-10-05T09:04:07.842Z,40
2022-10-05T09:05:07.843Z,41
2022-10-05T09:06:07.871Z,37
2022-10-05T09:07:07.872Z,48
2022-10-05T09:08:07.872Z,43
2022-10-05T09:09:07.873Z,48
2022-10-05T09:10:07.874Z,55
2022-10-05T09:11:07.874Z,46
2022-10-05T09:12:07.900Z,49
2022-10-05T09:13:07.875Z,56
2022-10-05T09:14:07.876Z,51
2022-10-05T09:15:07.877Z,48
2022-10-05T09:16:07.849Z,52
2022-10-05T09:17:07.850Z,41
2022-10-05T09:18:07.850Z,45
2022-10-05T09:19:07.851Z,49
2022-10-05T09:20:07.851Z,51
2022-10-05T09:21:07.852Z,54
2022-10-05T09:22:07.881Z,66
2022-10-05T09:23:07.882Z,63
2022-10-05T09:24:07.882Z,63
2022-10-05T09:25:07.883Z,64
2022-10-05T09:26:07.883Z,57
2022-10-05T09:27:07.884Z,51
2022-10-05T09:28:07.884Z,59
2022-10-05T09:29:07.885Z,70
2022-10-05T09:30:07.886Z,70
2022-10-05T09:31:07.858Z,68
2022-10-05T09:32:07.859Z,69
2022-10-05T09:33:07.859Z,67
2022-10-05T09:34:07.860Z,48
2022-10-05T09:35:07.860Z,50
2022-10-05T09:36:07.861Z,49
2022-10-05T09:37:07.890Z,57
2022-10-05T09:38:07.890Z,71
2022-10-05T09:39:07.891Z,74
2022-10-05T09:40:07.892Z,62
2022-10-05T09:41:07.892Z,69
2022-10-05T09:42:07.892Z,59
2022-10-05T09:43:07.893Z,57
2022-10-05T09:44:07.894Z,63
2022-10-05T09:45:07.894Z,75
2022-10-05T09:46:07.867Z,69
2022-10-05T09:47:07.867Z,71
2022-10-05T09:48:07.868Z,74
2022-10-05T09:49:07.869Z,67
2022-10-05T09:50:07.869Z,72
2022-10-05T09:51:07.870Z,74
2022-10-05T09:52:07.899Z,75
2022-10-05T09:53:07.899Z,81
2022-10-05T09:54:07.900Z,76
2022-10-05T09:55:07.900Z,74
2022-10-05T09:56:07.901Z,85
2022-10-05T09:57:07.902Z,91
2022-10-05T09:58:07.902Z,74
2022-10-05T09:59:07.903Z,84
2022-10-05T10:00:07.903Z,79
2022-10-05T10:01:07.876Z,62
2022-10-05T10:02:07.876Z,51
2022-10-05T10:03:07.877Z,52
2022-10-05T10:04:07.878Z,49
2022-10-05T10:05:07.878Z,49
2022-10-05T10:06:07.879Z,50
2022-10-05T10:07:07.907Z,73
2022-10-05T10:08:07.908Z,74
2022-10-05T10:09:07.909Z,61
2022-10-05T10:10:07.909Z,56
2022-10-05T10:11:07.910Z,56
2022-10-05T10:12:07.910Z,57
2022-10-05T10:13:07.911Z,53
2022-10-05T10:14:07.912Z,63
2022-10-05T10:15:07.912Z,72
2022-10-05T10:16:07.885Z,73
2022-10-05T10:17:07.885Z,79
2022-10-05T10:18:07.886Z,69
2022-10-05T10:19:07.887Z,58
2022-10-05T10:20:07.887Z,60
2022-10-05T10:21:07.888Z,61
2022-10-05T10:22:07.917Z,75
2022-10-05T10:23:07.917Z,73
2022-10-05T10:24:07.918Z,77
2022-10-05T10:25:07.918Z,68
2022-10-05T10:26:07.919Z,72
2022-10-05T10:27:07.919Z,70
2022-10-05T10:28:07.930Z,76
2022-10-05T10:29:07.921Z,79
2022-10-05T10:30:07.921Z,88
2022-10-05T10:31:07.922Z,88
2022-10-05T10:32:07.894Z,68
2022-10-05T10:33:07.895Z,80
2022-10-05T10:34:07.896Z,78
2022-10-05T10:35:07.896Z,77
2022-10-05T10:36:07.897Z,64
2022-10-05T10:37:07.897Z,81
2022-10-05T10:38:07.926Z,79
2022-10-05T10:39:07.927Z,78
2022-10-05T10:40:07.928Z,77
2022-10-05T10:41:07.928Z,81
2022-10-05T10:42:07.928Z,71
2022-10-05T10:43:07.929Z,78
2022-10-05T10:44:07.930Z,85
2022-10-05T10:45:07.930Z,92
2022-10-05T10:46:07.931Z,91
2022-10-05T10:47:07.903Z,81
2022-10-05T10:48:07.904Z,89
2022-10-05T10:49:07.904Z,91
2022-10-05T10:50:07.905Z,91
2022-10-05T10:51:07.906Z,68
2022-10-05T10:52:07.906Z,79
2022-10-05T10:53:07.935Z,80
2022-10-05T10:54:07.935Z,85
2022-10-05T10:55:08.000Z,88
2022-10-05T10:56:07.937Z,83
2022-10-05T10:57:07.937Z,78
2022-10-05T10:58:07.938Z,71
2022-10-05T10:59:07.938Z,69
2022-10-05T11:00:07.939Z,81
2022-10-05T11:01:07.940Z,76
2022-10-05T11:02:07.912Z,78
2022-10-05T11:03:07.913Z,79
2022-10-05T11:04:07.913Z,85
2022-10-05T11:05:07.914Z,76
2022-10-05T11:06:07.914Z,81
2022-10-05T11:07:07.915Z,75
2022-10-05T11:08:07.944Z,81
2022-10-05T11:09:07.944Z,80
2022-10-05T11:10:07.945Z,84
2022-10-05T11:11:07.945Z,70
2022-10-05T11:12:07.946Z,68
2022-10-05T11:13:07.947Z,69
2022-10-05T11:14:07.947Z,59
2022-10-05T11:15:07.948Z,58
2022-10-05T11:16:07.948Z,62
2022-10-05T11:17:07.921Z,75
2022-10-05T11:18:07.921Z,72
2022-10-05T11:19:07.922Z,58
2022-10-05T11:20:07.922Z,58
2022-10-05T11:21:07.923Z,65
2022-10-05T11:22:07.924Z,67
2022-10-05T11:23:07.952Z,81
2022-10-05T11:24:07.953Z,76
2022-10-05T11:25:07.953Z,71
2022-10-05T11:26:07.954Z,62
2022-10-05T11:27:07.955Z,59
2022-10-05T11:28:07.955Z,61
2022-10-05T11:29:07.956Z,65
2022-10-05T11:30:07.956Z,77
2022-10-05T11:31:07.957Z,85
2022-10-05T11:32:08.022Z,78
2022-10-05T11:33:07.930Z,80
2022-10-05T11:34:07.931Z,64
2022-10-05T11:35:07.959Z,64
2022-10-05T11:36:07.932Z,64
2022-10-05T11:37:07.932Z,66
2022-10-05T11:38:07.961Z,59
2022-10-05T11:39:07.962Z,50
2022-10-05T11:40:07.962Z,69
2022-10-05T11:41:07.963Z,59
2022-10-05T11:42:07.963Z,65
2022-10-05T11:43:07.964Z,68
2022-10-05T11:44:07.965Z,55
2022-10-05T11:45:07.965Z,65
2022-10-05T11:46:07.966Z,61
2022-10-05T11:47:07.966Z,55
2022-10-05T11:48:07.939Z,60
2022-10-05T11:49:07.940Z,57
2022-10-05T11:50:07.940Z,48
2022-10-05T11:51:07.941Z,41
2022-10-05T11:52:07.941Z,53
2022-10-05T11:53:07.942Z,55
2022-10-05T11:54:07.971Z,58
2022-10-05T11:55:07.971Z,61
2022-10-05T11:56:08.036Z,64
2022-10-05T11:57:07.972Z,59
2022-10-05T11:58:07.973Z,54
2022-10-05T11:59:07.974Z,65
2022-10-05T12:00:07.974Z,80
2022-10-05T12:01:07.975Z,76
2022-10-05T12:02:07.975Z,65
2022-10-05T12:03:07.948Z,66
2022-10-05T12:04:07.948Z,74
2022-10-05T12:05:07.949Z,66
2022-10-05T12:06:07.949Z,72
2022-10-05T12:07:07.950Z,72
2022-10-05T12:08:07.950Z,67
2022-10-05T12:09:07.979Z,70
2022-10-05T12:10:07.980Z,68
2022-10-05T12:11:07.980Z,70
2022-10-05T12:12:07.981Z,65
2022-10-05T12:13:07.981Z,59
2022-10-05T12:14:07.982Z,54
2022-10-05T12:15:07.983Z,62
2022-10-05T12:16:07.983Z,51
2022-10-05T12:17:07.984Z,57
2022-10-05T12:18:07.956Z,59
2022-10-05T12:19:07.957Z,66
2022-10-05T12:20:07.957Z,68
2022-10-05T12:21:07.958Z,59
2022-10-05T12:22:07.959Z,68
2022-10-05T12:23:07.959Z,70
2022-10-05T12:24:07.988Z,59
2022-10-05T12:25:07.988Z,64
2022-10-05T12:26:07.989Z,69
2022-10-05T12:27:07.990Z,66
2022-10-05T12:28:07.990Z,65
2022-10-05T12:29:07.991Z,60
2022-10-05T12:30:07.992Z,62
2022-10-05T12:31:07.992Z,50
2022-10-05T12:32:07.993Z,58
2022-10-05T12:33:08.058Z,59
2022-10-05T12:34:07.966Z,63
2022-10-05T12:35:07.966Z,66
2022-10-05T12:36:07.995Z,64
2022-10-05T12:37:07.967Z,58
2022-10-05T12:38:07.968Z,54
2022-10-05T12:39:07.997Z,55
2022-10-05T12:40:07.997Z,57
2022-10-05T12:41:07.998Z,51
2022-10-05T12:42:07.998Z,56
2022-10-05T12:43:07.999Z,57
2022-10-05T12:44:08.000Z,57
2022-10-05T12:45:08.000Z,63
2022-10-05T12:46:08.001Z,59
2022-10-05T12:47:08.002Z,64
2022-10-05T12:48:08.002Z,77
2022-10-05T12:49:07.974Z,81
2022-10-05T12:50:07.975Z,78
2022-10-05T12:51:07.976Z,74
2022-10-05T12:52:07.976Z,71
2022-10-05T12:53:07.977Z,62
2022-10-05T12:54:08.005Z,65
2022-10-05T12:55:08.006Z,68
2022-10-05T12:56:08.007Z,62
2022-10-05T12:57:08.007Z,68
2022-10-05T12:58:08.008Z,78
2022-10-05T12:59:08.008Z,73
2022-10-05T13:00:08.073Z,88
2022-10-05T13:01:08.009Z,69
2022-10-05T13:02:08.010Z,75
2022-10-05T13:03:08.020Z,82
2022-10-05T13:04:07.983Z,71
2022-10-05T13:05:07.983Z,77
2022-10-05T13:06:07.984Z,54
2022-10-05T13:07:07.985Z,69
2022-10-05T13:08:07.985Z,60
2022-10-05T13:09:08.014Z,62
2022-10-05T13:10:08.014Z,50
2022-10-05T13:11:08.015Z,57
2022-10-05T13:12:08.024Z,57
2022-10-05T13:13:08.016Z,66
2022-10-05T13:14:08.017Z,57
2022-10-05T13:15:08.017Z,68
2022-10-05T13:16:08.018Z,71
2022-10-05T13:17:08.018Z,73
2022-10-05T13:18:08.019Z,68
2022-10-05T13:19:07.991Z,67
2022-10-05T13:20:07.992Z,56
2022-10-05T13:21:07.992Z,67
2022-10-05T13:22:07.993Z,72
2022-10-05T13:23:07.993Z,65
2022-10-05T13:24:07.994Z,69
2022-10-05T13:25:08.023Z,72
2022-10-05T13:26:08.023Z,71
2022-10-05T13:27:08.024Z,63
2022-10-05T13:28:08.024Z,55
2022-10-05T13:29:08.025Z,60
2022-10-05T13:30:08.025Z,55
2022-10-05T13:31:08.026Z,80
2022-10-05T13:32:08.027Z,73
2022-10-05T13:33:08.027Z,67
2022-10-05T13:34:07.999Z,65
2022-10-05T13:35:08.000Z,59
2022-10-05T13:36:08.001Z,56
2022-10-05T13:37:08.001Z,62
2022-10-05T13:38:08.002Z,71
2022-10-05T13:39:08.002Z,82
2022-10-05T13:40:08.031Z,61
2022-10-05T13:41:08.031Z,65
2022-10-05T13:42:08.032Z,74
2022-10-05T13:43:08.032Z,72
2022-10-05T13:44:08.033Z,70
2022-10-05T13:45:08.034Z,78
2022-10-05T13:46:08.035Z,84
2022-10-05T13:47:08.035Z,76
2022-10-05T13:48:08.035Z,75
2022-10-05T13:49:08.061Z,78
2022-10-05T13:50:08.008Z,79
2022-10-05T13:51:08.009Z,74
2022-10-05T13:52:08.009Z,74
2022-10-05T13:53:08.010Z,69
2022-10-05T13:54:08.011Z,69
2022-10-05T13:55:08.039Z,73
2022-10-05T13:56:08.040Z,73
2022-10-05T13:57:08.040Z,65
2022-10-05T13:58:08.041Z,76
2022-10-05T13:59:08.041Z,86
2022-10-05T14:00:08.042Z,91
2022-10-05T14:01:08.042Z,81
2022-10-05T14:02:08.043Z,69
2022-10-05T14:03:08.044Z,76
2022-10-05T14:04:08.054Z,80
2022-10-05T14:05:08.017Z,85
2022-10-05T14:06:08.017Z,84
2022-10-05T14:07:08.018Z,75
2022-10-05T14:08:08.018Z,67
2022-10-05T14:09:08.019Z,68
2022-10-05T14:10:08.047Z,84
2022-10-05T14:11:08.048Z,78
2022-10-05T14:12:08.048Z,83
2022-10-05T14:13:08.058Z,86
2022-10-05T14:14:08.050Z,79
2022-10-05T14:15:08.050Z,89
2022-10-05T14:16:08.051Z,85
2022-10-05T14:17:08.052Z,81
2022-10-05T14:18:08.052Z,72